SBOSBO PVK / LGPZ
Speedbird OnlineSpeedbird Online PVK / LGPZ

Aktion National Airport
14:58 28°C

Location Preveza, Greece
Latitude: 38.925498962402344
Longitude: 20.765300750732422
Local Time 14:58 on 12 Apr 2024
UTC +3 hours (Europe/Athens)
Currency £1 equals EUR 1.17
METAR LGPZ 121120Z 32009KT 9999 FEW025 28/09 Q1022
TAF TAF LGPZ 121100Z 1212/1312 29010KT 9999 FEW020 BECMG 1213/1215 06010KT BECMG 1309/1311 28010KT
Weather As Of 12 Apr 2024 14:58
Description Few clouds
Wind 17 km/h from North-West (320°)
Cloud Cover 20%
Precipitation Rain: none, Snow: none
Sunrise 07:04
Sunset 20:10
NOTAM 1 active NOTAM
Web Wikipedia
Codes IATA: PVK
ICAO: LGPZ
Altitude 3 Meter / 11 Feet
Distance 2,124 KM / 1,320 Miles
from London.
Runways
RunwayLength (m)Surface
07L2871Asphalt
25R2871Asphalt
Radio
TypeDescriptionFrequency
A/GRDO563.7
APPAPP120.45
TWRTWR120.45
Live ATC



Support Speedbird Online

© 2017-2024 Speedbird Online